Time;durP1;ratioP1;P1;durP2;ratioP2;P2;SDS_P1;SDS_P2;PMS_P1;PMS_P2;Temp;Humidity;BMP_temperature;BMP_pressure;BME280_temperature;BME280_humidity;BME280_pressure;Samples;Min_cycle;Max_cycle;Signal;HPM_P1;HPM_P2
2021/08/26 00:00:07;;;;;;;11.90;6.70;;;;;;;13.36;87.28;97107.40;116271;1185;68256;-73
2021/08/26 00:05:53;;;;;;;11.90;6.20;;;;;;;13.38;87.36;97103.98;116353;1184;59555;-73
2021/08/26 00:08:23;;;;;;;10.50;6.60;;;;;;;13.39;87.30;97101.46;116205;1185;70392;-73
2021/08/26 00:10:53;;;;;;;12.90;6.00;;;;;;;13.40;87.42;97103.87;116341;1183;69430;-73
2021/08/26 00:13:23;;;;;;;8.30;6.00;;;;;;;13.40;87.21;97102.27;116138;1184;70204;-73
2021/08/26 00:15:55;;;;;;;8.80;6.10;;;;;;;13.42;87.44;97099.56;116192;1184;59552;-74
2021/08/26 00:18:25;;;;;;;9.20;5.90;;;;;;;13.43;87.15;97096.20;116333;1185;59569;-73
2021/08/26 00:20:54;;;;;;;11.70;6.30;;;;;;;13.43;87.37;97096.75;116083;1185;71542;-73
2021/08/26 00:23:25;;;;;;;8.40;5.60;;;;;;;13.42;87.13;97096.14;116390;1184;68072;-70
2021/08/26 00:25:55;;;;;;;8.80;5.70;;;;;;;13.42;87.14;97092.55;116350;1184;69276;-72
2021/08/26 00:28:24;;;;;;;8.00;5.90;;;;;;;13.43;86.98;97091.71;116325;1179;59543;-73
2021/08/26 00:30:54;;;;;;;11.50;5.60;;;;;;;13.43;86.82;97093.69;116371;1183;59514;-73
2021/08/26 00:33:23;;;;;;;9.80;5.70;;;;;;;13.42;86.78;97094.40;116320;1183;71349;-73
2021/08/26 00:35:53;;;;;;;9.10;5.50;;;;;;;13.40;86.78;97093.52;116352;1183;69147;-74
2021/08/26 00:38:22;;;;;;;9.00;6.10;;;;;;;13.39;86.80;97088.27;116330;1184;69365;-73
2021/08/26 00:40:54;;;;;;;9.70;6.40;;;;;;;13.34;86.95;97088.41;116212;1183;59505;-73
2021/08/26 00:43:23;;;;;;;9.40;6.60;;;;;;;13.32;87.04;97085.08;116362;1184;59552;-73
2021/08/26 00:45:54;;;;;;;12.20;6.50;;;;;;;13.31;87.13;97077.42;116148;1185;70492;-75
2021/08/26 00:48:26;;;;;;;12.80;5.90;;;;;;;13.30;87.77;97074.05;116283;1184;69374;-74
2021/08/26 00:50:57;;;;;;;12.80;6.40;;;;;;;13.30;88.12;97070.41;116337;1185;68425;-73
2021/08/26 00:53:27;;;;;;;12.30;6.90;;;;;;;13.29;88.16;97069.79;116379;1185;59533;-73
2021/08/26 00:55:57;;;;;;;9.10;6.40;;;;;;;13.28;87.73;97068.24;116365;1179;59482;-73
2021/08/26 00:58:30;;;;;;;9.30;6.00;;;;;;;13.26;87.44;97065.89;116247;1185;71367;-73
2021/08/26 01:01:06;;;;;;;10.50;5.80;;;;;;;13.24;87.63;97066.23;116350;1184;69357;-73
2021/08/26 01:03:50;;;;;;;9.50;5.80;;;;;;;13.23;87.79;97068.19;116192;1185;69213;-72
2021/08/26 01:06:32;;;;;;;8.60;5.70;;;;;;;13.22;87.66;97062.20;116311;1184;59524;-72
2021/08/26 01:09:11;;;;;;;9.90;5.90;;;;;;;13.22;87.82;97063.13;116387;1179;59524;-72
2021/08/26 01:11:43;;;;;;;7.30;5.20;;;;;;;13.20;88.15;97058.13;116323;1183;71251;-73
2021/08/26 01:14:15;;;;;;;8.60;5.90;;;;;;;13.18;88.70;97061.59;116367;1183;68367;-72
2021/08/26 01:16:46;;;;;;;7.40;5.90;;;;;;;13.17;88.03;97058.11;116173;1179;69207;-73
2021/08/26 01:19:16;;;;;;;9.90;5.90;;;;;;;13.17;87.76;97056.45;116328;1183;59620;-73
2021/08/26 01:21:46;;;;;;;9.90;6.60;;;;;;;13.17;87.56;97057.09;116329;1180;59533;-73
2021/08/26 01:24:18;;;;;;;8.80;6.00;;;;;;;13.17;87.48;97056.60;116375;1185;71327;-74
2021/08/26 01:26:53;;;;;;;10.80;6.20;;;;;;;13.17;87.62;97054.20;116212;1182;68473;-74
2021/08/26 01:29:23;;;;;;;9.00;6.40;;;;;;;13.18;87.44;97054.82;116212;1185;68411;-73
2021/08/26 01:31:52;;;;;;;10.40;6.40;;;;;;;13.17;87.33;97054.20;116123;1184;59547;-70
2021/08/26 01:34:22;;;;;;;9.60;5.90;;;;;;;13.17;87.44;97056.11;116200;1185;59549;-73
2021/08/26 01:36:52;;;;;;;12.90;5.90;;;;;;;13.17;87.49;97052.30;116201;1179;70370;-72
2021/08/26 01:39:23;;;;;;;9.60;6.20;;;;;;;13.16;87.34;97054.96;116193;1185;68307;-73
2021/08/26 01:41:55;;;;;;;12.70;6.80;;;;;;;13.15;87.43;97053.11;116183;1179;69082;-73
2021/08/26 01:44:29;;;;;;;11.60;6.70;;;;;;;13.13;87.57;97052.16;116236;1185;59508;-73
2021/08/26 01:47:11;;;;;;;9.80;6.60;;;;;;;13.12;87.43;97048.33;116175;1185;59533;-74
2021/08/26 01:49:41;;;;;;;12.50;6.70;;;;;;;13.12;87.87;97048.84;116232;1185;71318;-73
2021/08/26 01:52:14;;;;;;;15.00;6.60;;;;;;;13.12;88.46;97044.34;116239;1184;68743;-72
2021/08/26 01:54:57;;;;;;;12.10;6.60;;;;;;;13.13;88.60;97045.67;116183;1185;67633;-72
2021/08/26 01:57:30;;;;;;;9.10;6.20;;;;;;;13.14;88.24;97049.34;116187;1179;59508;-72
2021/08/26 02:00:03;;;;;;;8.00;5.90;;;;;;;13.16;88.38;97049.18;116053;1184;59562;-72
2021/08/26 02:02:33;;;;;;;10.10;6.50;;;;;;;13.17;88.67;97043.01;116215;1179;70463;-72
2021/08/26 02:05:04;;;;;;;9.00;6.70;;;;;;;13.18;88.09;97048.30;116158;1185;68097;-72
2021/08/26 02:07:35;;;;;;;8.60;6.40;;;;;;;13.19;88.14;97049.23;116189;1185;68533;-73
2021/08/26 02:10:06;;;;;;;11.90;6.70;;;;;;;13.18;87.91;97049.09;116227;1185;59566;-72
2021/08/26 02:12:37;;;;;;;12.90;7.00;;;;;;;13.18;87.98;97049.98;116190;1183;59545;-73
2021/08/26 02:15:08;;;;;;;12.10;7.50;;;;;;;13.19;87.78;97048.52;116208;1185;71300;-72
2021/08/26 02:17:38;;;;;;;11.40;7.50;;;;;;;13.18;87.79;97053.06;116122;1182;68815;-72
2021/08/26 02:20:08;;;;;;;12.90;7.20;;;;;;;13.16;87.96;97054.95;116167;1185;68360;-72
2021/08/26 02:22:38;;;;;;;9.80;6.20;;;;;;;13.17;87.99;97054.06;116151;1184;59539;-72
2021/08/26 02:25:12;;;;;;;10.70;5.90;;;;;;;13.17;88.05;97050.98;116204;1185;59549;-72
2021/08/26 02:27:42;;;;;;;9.20;6.10;;;;;;;13.17;88.06;97052.06;116224;1185;71376;-72
2021/08/26 02:30:12;;;;;;;11.90;6.10;;;;;;;13.17;88.12;97050.15;116148;1185;68614;-72
2021/08/26 02:32:42;;;;;;;8.90;5.60;;;;;;;13.18;87.99;97052.84;116129;1185;68373;-72
2021/08/26 02:35:11;;;;;;;9.90;6.70;;;;;;;13.19;88.08;97045.55;116175;1180;59536;-74
2021/08/26 02:37:41;;;;;;;13.80;7.00;;;;;;;13.20;88.02;97042.74;116153;1182;59501;-73
2021/08/26 02:40:11;;;;;;;10.90;6.90;;;;;;;13.19;87.97;97043.73;116217;1185;71211;-74
2021/08/26 02:42:41;;;;;;;11.30;8.00;;;;;;;13.18;87.97;97047.91;116205;1185;68446;-73
2021/08/26 02:45:10;;;;;;;;;;;;;;;13.16;88.00;97050.27;116212;1185;69219;-73
2021/08/26 02:47:41;;;;;;;11.00;8.10;;;;;;;13.14;88.16;97050.05;116159;1183;59504;-73
2021/08/26 02:50:11;;;;;;;12.60;7.40;;;;;;;13.13;88.21;97046.23;116129;1181;59488;-74
2021/08/26 02:52:40;;;;;;;12.60;8.10;;;;;;;13.13;88.24;97040.21;116224;1184;70342;-73
2021/08/26 02:55:10;;;;;;;13.50;8.80;;;;;;;13.13;88.59;97043.91;116156;1185;67504;-73
2021/08/26 02:57:40;;;;;;;15.40;9.20;;;;;;;13.14;88.45;97046.20;116137;1185;68405;-73
2021/08/26 03:00:10;;;;;;;19.10;9.80;;;;;;;13.14;88.09;97046.41;116193;1180;59546;-73
2021/08/26 03:02:40;;;;;;;20.10;10.60;;;;;;;13.15;87.90;97044.61;116056;1182;59547;-73
2021/08/26 03:05:10;;;;;;;14.40;10.70;;;;;;;13.16;87.72;97039.59;116153;1185;70587;-72
2021/08/26 03:07:40;;;;;;;17.70;11.10;;;;;;;13.15;87.93;97040.77;116351;1185;68390;-73
2021/08/26 03:10:10;;;;;;;18.60;11.50;;;;;;;13.15;87.92;97034.61;116095;1185;68838;-74
2021/08/26 03:12:40;;;;;;;15.30;10.50;;;;;;;13.14;87.80;97036.71;116126;1184;59549;-73
2021/08/26 03:15:10;;;;;;;17.20;10.70;;;;;;;13.11;87.96;97039.46;116151;1181;59494;-73
2021/08/26 03:17:39;;;;;;;19.40;11.30;;;;;;;13.09;87.93;97038.75;116165;1181;70588;-73
2021/08/26 03:20:11;;;;;;;15.30;10.60;;;;;;;13.07;88.06;97040.60;116122;1185;69108;-73
2021/08/26 03:22:41;;;;;;;18.70;11.90;;;;;;;13.06;88.28;97040.02;116126;1185;68633;-74
2021/08/26 03:25:10;;;;;;;17.90;11.80;;;;;;;13.04;88.48;97034.16;116259;1184;59538;-73
2021/08/26 03:27:40;;;;;;;17.40;10.80;;;;;;;13.02;88.34;97035.59;116181;1182;59585;-73
2021/08/26 03:30:10;;;;;;;16.10;11.50;;;;;;;13.02;88.23;97033.67;116329;1184;70357;-73
2021/08/26 03:32:39;;;;;;;18.70;12.40;;;;;;;13.04;88.18;97037.98;116334;1184;67466;-74
2021/08/26 03:35:10;;;;;;;15.60;11.10;;;;;;;13.04;88.08;97042.96;116141;1182;69028;-73
2021/08/26 03:37:39;;;;;;;13.80;10.80;;;;;;;13.06;87.99;97040.11;116281;1183;60022;-72
2021/08/26 03:40:10;;;;;;;14.00;10.70;;;;;;;13.07;87.93;97042.27;116373;1183;59534;-73
2021/08/26 03:42:39;;;;;;;18.30;11.00;;;;;;;13.08;87.81;97042.80;116281;1179;71131;-73
2021/08/26 03:45:09;;;;;;;18.20;10.80;;;;;;;13.09;87.76;97040.90;116289;1183;69277;-73
2021/08/26 03:47:38;;;;;;;19.00;9.70;;;;;;;13.11;87.93;97044.41;116320;1183;69026;-72
2021/08/26 03:50:08;;;;;;;16.50;10.50;;;;;;;13.12;87.87;97042.88;116340;1183;59657;-73
2021/08/26 03:52:38;;;;;;;12.40;9.00;;;;;;;13.13;87.71;97041.79;116325;1182;59552;-73
2021/08/26 03:55:08;;;;;;;13.00;9.50;;;;;;;13.14;87.63;97043.17;116306;1183;71155;-72
2021/08/26 03:57:38;;;;;;;17.30;9.10;;;;;;;13.15;87.58;97043.01;116359;1180;67486;-73
2021/08/26 04:00:08;;;;;;;13.00;8.00;;;;;;;13.17;87.47;97044.92;116295;1183;68621;-73
2021/08/26 04:02:38;;;;;;;12.50;8.10;;;;;;;13.17;87.29;97045.39;116274;1185;59488;-73
2021/08/26 04:05:08;;;;;;;14.50;8.80;;;;;;;13.17;87.15;97048.66;116336;1183;59500;-73
2021/08/26 04:07:38;;;;;;;17.00;10.00;;;;;;;13.18;87.16;97049.98;116332;1185;71333;-73
2021/08/26 04:10:08;;;;;;;14.40;10.50;;;;;;;13.17;87.16;97045.95;116327;1183;68343;-72
2021/08/26 04:12:38;;;;;;;14.90;9.40;;;;;;;13.18;87.57;97047.73;116272;1183;69100;-74
2021/08/26 04:15:07;;;;;;;17.30;11.30;;;;;;;13.19;87.62;97047.16;116330;1179;59540;-72
2021/08/26 04:17:37;;;;;;;16.00;11.90;;;;;;;13.18;87.74;97048.62;116308;1183;59566;-73
2021/08/26 04:20:07;;;;;;;16.80;12.50;;;;;;;13.18;87.80;97047.82;116411;1178;70558;-73
2021/08/26 04:22:36;;;;;;;17.10;11.10;;;;;;;13.18;87.94;97053.86;116294;1179;69157;-73
2021/08/26 04:25:07;;;;;;;20.60;10.20;;;;;;;13.20;88.11;97055.44;116243;1182;68887;-73
2021/08/26 04:27:37;;;;;;;16.40;11.30;;;;;;;13.21;88.70;97058.75;116228;1185;59546;-72
2021/08/26 04:30:07;;;;;;;12.90;10.70;;;;;;;13.22;88.58;97055.83;116184;1184;59550;-73
2021/08/26 04:32:36;;;;;;;17.20;11.50;;;;;;;13.25;88.55;97055.20;116322;1183;71165;-73
2021/08/26 04:35:06;;;;;;;14.50;11.10;;;;;;;13.28;88.47;97054.05;116277;1179;68407;-71
2021/08/26 04:37:36;;;;;;;12.90;10.00;;;;;;;13.28;88.15;97055.08;116200;1182;67713;-71
2021/08/26 04:40:06;;;;;;;13.30;8.80;;;;;;;13.26;88.19;97057.91;116043;1185;59600;-72
2021/08/26 04:42:36;;;;;;;11.90;8.50;;;;;;;13.29;88.04;97059.48;116303;1185;59489;-72
2021/08/26 04:45:05;;;;;;;11.30;7.80;;;;;;;13.33;87.95;97057.55;116323;1178;71313;-73
2021/08/26 04:47:35;;;;;;;9.80;8.10;;;;;;;13.37;87.77;97058.23;116164;1184;68999;-74
2021/08/26 04:50:05;;;;;;;12.50;8.30;;;;;;;13.43;87.70;97058.73;116260;1183;68623;-74
2021/08/26 04:52:34;;;;;;;13.30;8.10;;;;;;;13.49;87.48;97060.47;116298;1179;59526;-72
2021/08/26 04:55:04;;;;;;;11.90;7.90;;;;;;;13.56;87.54;97062.05;116294;1179;59523;-72
2021/08/26 04:57:33;;;;;;;12.70;7.30;;;;;;;13.64;87.36;97059.60;116186;1182;70592;-70
2021/08/26 05:00:04;;;;;;;11.20;7.60;;;;;;;13.72;87.22;97059.85;116333;1179;68990;-73
2021/08/26 05:02:33;;;;;;;10.50;7.10;;;;;;;13.81;87.13;97058.02;116235;1182;69222;-73
2021/08/26 05:05:04;;;;;;;14.30;7.10;;;;;;;13.87;86.75;97054.59;116338;1185;59480;-73
2021/08/26 05:07:33;;;;;;;11.60;7.00;;;;;;;13.94;86.34;97056.75;116269;1178;59542;-73
2021/08/26 05:10:03;;;;;;;12.50;6.60;;;;;;;13.97;85.94;97054.13;116294;1183;71159;-72
2021/08/26 05:12:33;;;;;;;10.90;6.60;;;;;;;13.99;85.75;97052.26;116270;1179;69282;-74
2021/08/26 05:15:02;;;;;;;13.70;7.50;;;;;;;14.06;86.00;97052.39;116129;1185;68263;-73
2021/08/26 05:17:31;;;;;;;13.40;7.70;;;;;;;14.14;85.91;97047.56;116157;1179;59603;-73
2021/08/26 05:20:00;;;;;;;14.40;7.10;;;;;;;14.21;85.93;97051.42;116266;1182;59530;-72
2021/08/26 05:22:29;;;;;;;9.70;6.50;;;;;;;14.29;85.82;97052.77;116259;1179;70845;-74
2021/08/26 05:24:58;;;;;;;13.70;7.10;;;;;;;14.35;85.26;97052.48;116267;1178;68140;-74
2021/08/26 05:27:27;;;;;;;14.40;6.70;;;;;;;14.40;84.13;97052.89;116230;1183;69345;-73
2021/08/26 05:29:56;;;;;;;11.30;7.00;;;;;;;14.45;84.07;97052.23;116108;1185;59553;-72
2021/08/26 05:32:25;;;;;;;8.90;6.00;;;;;;;14.54;83.40;97054.25;116251;1183;59541;-73
2021/08/26 05:34:54;;;;;;;15.30;8.50;;;;;;;14.57;81.52;97054.59;116239;1182;71819;-72
2021/08/26 05:37:23;;;;;;;16.00;9.90;;;;;;;14.66;82.23;97056.11;116241;1179;69204;-71
2021/08/26 05:39:53;;;;;;;14.10;10.10;;;;;;;14.76;81.81;97059.33;116249;1182;69261;-71
2021/08/26 05:42:23;;;;;;;14.00;9.10;;;;;;;14.88;81.14;97062.94;116245;1185;59546;-71
2021/08/26 05:44:52;;;;;;;14.20;11.70;;;;;;;14.93;79.78;97065.52;116169;1185;59541;-71
2021/08/26 05:47:21;;;;;;;15.30;12.50;;;;;;;15.01;79.89;97062.02;116292;1182;70634;-70
2021/08/26 05:49:50;;;;;;;18.90;14.40;;;;;;;15.07;79.21;97068.45;116131;1184;69278;-71
2021/08/26 05:52:19;;;;;;;20.20;12.00;;;;;;;15.06;77.98;97066.67;116220;1182;69262;-71
2021/08/26 05:54:48;;;;;;;15.10;11.70;;;;;;;15.08;77.79;97067.59;116211;1183;59488;-74
2021/08/26 05:57:17;;;;;;;14.80;9.20;;;;;;;15.12;78.25;97068.77;115955;1185;59575;-74
2021/08/26 05:59:46;;;;;;;13.70;9.10;;;;;;;15.21;78.68;97070.17;116141;1179;71160;-73
2021/08/26 06:02:16;;;;;;;13.80;9.80;;;;;;;15.28;78.34;97067.39;116230;1183;69824;-71
2021/08/26 06:04:45;;;;;;;10.30;7.40;;;;;;;15.42;77.90;97064.73;116212;1179;68278;-72
2021/08/26 06:07:14;;;;;;;10.20;6.90;;;;;;;15.55;76.73;97063.88;116222;1179;59479;-73
2021/08/26 06:09:43;;;;;;;9.70;6.20;;;;;;;15.69;76.36;97066.66;116045;1182;59612;-75
2021/08/26 06:12:12;;;;;;;8.60;5.40;;;;;;;15.81;75.35;97063.90;116196;1184;71407;-71
2021/08/26 06:14:41;;;;;;;9.70;5.50;;;;;;;15.99;75.47;97059.56;116111;1185;69323;-71
2021/08/26 06:17:10;;;;;;;8.90;4.20;;;;;;;16.17;74.97;97062.35;116302;1180;69654;-71
2021/08/26 06:19:39;;;;;;;9.70;5.40;;;;;;;16.47;74.04;97070.53;116205;1184;59918;-72
2021/08/26 06:22:07;;;;;;;8.10;4.70;;;;;;;16.66;73.26;97068.23;116200;1182;59542;-70
2021/08/26 06:24:36;;;;;;;6.30;4.30;;;;;;;16.83;71.23;97072.06;116184;1185;71311;-72
2021/08/26 06:27:05;;;;;;;8.00;4.60;;;;;;;17.03;70.06;97071.62;116189;1185;68215;-70
2021/08/26 06:29:34;;;;;;;8.30;4.90;;;;;;;16.98;68.70;97071.83;116173;1184;68891;-73
2021/08/26 06:32:03;;;;;;;7.40;4.40;;;;;;;17.18;69.70;97075.34;116190;1183;59549;-73
2021/08/26 06:34:35;;;;;;;9.90;4.60;;;;;;;17.66;69.27;97070.39;116205;1182;59541;-74
2021/08/26 06:37:05;;;;;;;9.10;4.70;;;;;;;18.30;68.59;97068.51;116211;1184;70990;-73
2021/08/26 06:39:34;;;;;;;9.00;4.40;;;;;;;18.98;65.38;97066.19;116207;1185;69265;-73
2021/08/26 06:42:03;;;;;;;8.20;4.60;;;;;;;19.40;64.22;97064.02;116209;1185;69520;-72
2021/08/26 06:44:32;;;;;;;8.90;4.20;;;;;;;19.66;64.47;97063.73;116060;1184;59600;-72
2021/08/26 06:47:01;;;;;;;6.90;3.80;;;;;;;19.87;63.47;97062.63;116191;1179;59530;-72
2021/08/26 06:49:29;;;;;;;8.50;4.30;;;;;;;19.74;60.56;97065.82;116216;1182;72023;-71
2021/08/26 06:51:58;;;;;;;6.20;3.80;;;;;;;19.33;59.11;97067.55;116188;1183;68709;-73
2021/08/26 06:54:28;;;;;;;7.90;4.10;;;;;;;19.17;59.67;97062.14;116234;1180;68502;-73
2021/08/26 06:56:57;;;;;;;8.60;4.20;;;;;;;19.29;60.71;97066.71;116164;1179;59634;-70
2021/08/26 06:59:26;;;;;;;7.30;3.90;;;;;;;19.09;59.51;97067.54;116105;1183;59585;-71
2021/08/26 07:01:55;;;;;;;6.80;3.90;;;;;;;19.04;59.46;97063.66;116152;1185;71744;-71
2021/08/26 07:04:24;;;;;;;8.40;4.00;;;;;;;19.11;57.49;97063.00;116062;1179;68946;-72
2021/08/26 07:06:54;;;;;;;7.00;3.90;;;;;;;19.40;58.02;97060.55;115972;1185;68296;-73
2021/08/26 07:09:23;;;;;;;6.40;3.80;;;;;;;19.71;55.88;97058.51;116148;1184;59504;-71
2021/08/26 07:11:52;;;;;;;6.40;3.90;;;;;;;20.02;56.84;97055.16;116209;1184;59653;-71
2021/08/26 07:14:21;;;;;;;9.40;4.00;;;;;;;20.22;56.28;97057.58;116160;1184;70577;-72
2021/08/26 07:16:50;;;;;;;8.00;4.10;;;;;;;20.36;55.70;97059.95;116186;1179;69237;-71
2021/08/26 07:19:19;;;;;;;9.40;3.80;;;;;;;20.30;55.05;97055.83;116162;1184;69333;-72
2021/08/26 07:21:48;;;;;;;8.00;3.70;;;;;;;20.23;54.82;97050.02;116166;1185;59594;-71
2021/08/26 07:24:17;;;;;;;11.00;4.00;;;;;;;20.63;52.99;97051.52;116194;1183;59492;-72
2021/08/26 07:26:46;;;;;;;9.80;4.60;;;;;;;20.87;52.28;97049.40;116185;1183;71349;-72
2021/08/26 07:29:16;;;;;;;11.50;4.10;;;;;;;20.97;50.15;97047.77;116184;1185;68441;-71
2021/08/26 07:31:46;;;;;;;;;;;;;;;21.22;51.10;97048.25;116201;1182;68586;-72
2021/08/26 07:34:15;;;;;;;6.20;3.90;;;;;;;21.69;51.88;97050.91;116200;1182;59551;-71
2021/08/26 07:36:43;;;;;;;6.80;3.60;;;;;;;21.52;50.04;97050.63;115944;1184;59549;-71
2021/08/26 07:39:13;;;;;;;8.50;4.10;;;;;;;21.41;50.84;97050.85;116180;1185;70642;-73
2021/08/26 07:41:42;;;;;;;6.20;3.70;;;;;;;21.36;52.25;97047.58;116153;1179;68491;-71
2021/08/26 07:44:11;;;;;;;12.40;4.50;;;;;;;21.30;52.29;97046.13;116111;1185;68942;-71
2021/08/26 07:46:40;;;;;;;9.10;3.90;;;;;;;21.29;52.10;97045.05;116193;1179;59553;-71
2021/08/26 07:49:10;;;;;;;6.30;3.90;;;;;;;21.12;49.90;97042.67;116198;1183;59511;-72
2021/08/26 07:51:39;;;;;;;7.00;3.80;;;;;;;20.93;49.28;97038.94;116068;1181;71444;-72
2021/08/26 07:54:08;;;;;;;7.40;3.90;;;;;;;21.16;50.45;97037.59;116122;1183;68397;-72
2021/08/26 07:56:38;;;;;;;7.80;3.90;;;;;;;21.43;50.51;97035.17;115936;1185;69075;-73
2021/08/26 07:59:07;;;;;;;;;;;;;;;21.54;50.87;97038.16;116068;1184;59560;-73
2021/08/26 08:01:36;;;;;;;8.80;4.10;;;;;;;21.41;50.80;97035.35;116089;1185;59975;-72
2021/08/26 08:04:06;;;;;;;8.40;4.20;;;;;;;21.31;50.00;97038.13;116187;1183;71321;-70
2021/08/26 08:06:35;;;;;;;14.80;4.20;;;;;;;21.17;49.30;97038.81;116137;1184;68261;-72
2021/08/26 08:09:03;;;;;;;7.90;3.50;;;;;;;21.12;50.06;97039.30;116175;1184;69119;-70
2021/08/26 08:11:33;;;;;;;7.10;4.00;;;;;;;21.40;48.99;97035.25;116192;1185;59572;-71
2021/08/26 08:14:02;;;;;;;12.10;4.10;;;;;;;21.58;47.90;97032.10;116226;1181;59502;-71
2021/08/26 08:16:32;;;;;;;9.60;4.00;;;;;;;21.62;47.71;97032.00;116057;1184;71679;-71
2021/08/26 08:19:01;;;;;;;8.00;4.50;;;;;;;22.00;46.29;97029.07;116201;1185;69106;-72
2021/08/26 08:21:30;;;;;;;7.10;3.90;;;;;;;22.14;45.97;97027.70;116157;1184;68444;-72
2021/08/26 08:24:00;;;;;;;8.80;4.30;;;;;;;22.25;46.57;97022.99;116199;1179;59511;-72
2021/08/26 08:26:29;;;;;;;8.60;4.00;;;;;;;22.82;45.40;97021.97;116211;1179;59505;-73
2021/08/26 08:28:58;;;;;;;8.50;4.10;;;;;;;23.14;44.02;97021.39;116140;1184;71025;-73
2021/08/26 08:31:27;;;;;;;8.30;3.50;;;;;;;23.30;44.41;97023.42;116078;1185;68328;-72
2021/08/26 08:33:56;;;;;;;7.30;4.20;;;;;;;23.31;42.59;97022.29;116161;1184;68581;-72
2021/08/26 08:36:25;;;;;;;5.20;3.30;;;;;;;23.39;42.53;97025.90;116152;1182;59632;-72
2021/08/26 08:38:54;;;;;;;8.60;3.90;;;;;;;23.82;43.67;97017.08;116107;1179;60013;-72
2021/08/26 08:41:23;;;;;;;9.60;3.80;;;;;;;24.37;43.16;97014.64;116211;1184;71480;-72
2021/08/26 08:43:52;;;;;;;8.00;3.90;;;;;;;24.86;42.32;97013.36;116192;1184;69213;-74
2021/08/26 08:46:21;;;;;;;7.00;3.70;;;;;;;24.58;41.65;97011.01;116176;1180;68647;-71
2021/08/26 08:48:51;;;;;;;12.20;3.90;;;;;;;24.88;41.00;97010.74;116174;1182;59550;-74
2021/08/26 08:51:22;;;;;;;8.90;4.00;;;;;;;25.15;40.32;97008.98;116195;1180;59536;-71
2021/08/26 08:53:51;;;;;;;6.40;3.90;;;;;;;25.52;39.11;97011.10;116146;1183;71435;-72
2021/08/26 08:56:25;;;;;;;6.50;4.20;;;;;;;25.44;36.78;97005.20;116127;1184;69160;-73
2021/08/26 08:58:58;;;;;;;6.10;3.70;;;;;;;25.70;37.37;97003.14;116177;1184;69045;-71
2021/08/26 09:01:27;;;;;;;7.60;3.60;;;;;;;26.43;37.66;97000.81;116142;1183;59549;-71
2021/08/26 09:03:57;;;;;;;6.60;3.80;;;;;;;25.79;37.33;97004.21;116153;1183;59450;-72
2021/08/26 09:06:40;;;;;;;9.80;3.90;;;;;;;25.19;37.22;96999.67;116168;1183;72091;-72
2021/08/26 09:09:11;;;;;;;8.40;3.90;;;;;;;25.15;38.13;97000.20;116154;1180;68701;-71
2021/08/26 09:11:50;;;;;;;6.60;3.60;;;;;;;24.57;39.05;96998.70;116166;1179;69147;-71
2021/08/26 09:14:22;;;;;;;;;;;;;;;24.09;39.45;96996.70;116170;1181;59558;-71
2021/08/26 09:16:54;;;;;;;6.80;4.10;;;;;;;23.55;40.03;96994.86;116231;1184;59524;-71
2021/08/26 09:19:32;;;;;;;7.20;4.00;;;;;;;23.14;41.17;96996.80;116165;1184;70991;-72
2021/08/26 09:22:06;;;;;;;7.50;3.80;;;;;;;23.10;42.23;97000.09;116200;1184;68509;-71
2021/08/26 09:24:43;;;;;;;6.50;3.90;;;;;;;23.07;41.07;96996.34;116161;1183;69056;-71
2021/08/26 09:27:35;;;;;;;7.40;4.00;;;;;;;22.78;40.74;96995.53;116196;1183;59551;-71
2021/08/26 09:30:19;;;;;;;10.40;3.60;;;;;;;22.70;41.86;96990.05;116139;1182;59626;-72
2021/08/26 09:32:56;;;;;;;9.50;4.30;;;;;;;23.79;41.42;96989.54;116213;1179;71940;-73
2021/08/26 09:35:28;;;;;;;7.90;3.90;;;;;;;24.37;38.06;96986.14;116164;1184;70332;-73
2021/08/26 09:38:04;;;;;;;8.70;4.00;;;;;;;24.61;37.41;96985.98;116118;1184;69211;-72
2021/08/26 09:40:46;;;;;;;7.70;4.40;;;;;;;24.17;37.86;96983.85;116099;1179;59543;-72
2021/08/26 09:43:15;;;;;;;9.00;4.00;;;;;;;25.13;38.15;96981.63;116265;1183;59554;-71
2021/08/26 09:45:49;;;;;;;6.30;4.10;;;;;;;25.81;36.60;96980.62;116200;1183;71145;-72
2021/08/26 09:48:19;;;;;;;8.40;4.10;;;;;;;26.59;34.64;96981.91;116212;1178;69221;-72
2021/08/26 09:50:47;;;;;;;;;;;;;;;26.84;32.08;96973.14;116234;1183;69024;-71
2021/08/26 09:53:33;;;;;;;6.20;3.40;;;;;;;26.75;32.15;96970.11;116164;1183;59484;-72
2021/08/26 09:56:06;;;;;;;4.70;3.10;;;;;;;27.46;30.41;96966.16;116229;1183;59504;-70
2021/08/26 09:58:36;;;;;;;5.50;3.60;;;;;;;27.26;30.70;96964.95;116077;1181;70598;-70
2021/08/26 10:01:23;;;;;;;5.10;3.30;;;;;;;27.02;32.81;96965.20;116247;1183;70119;-70
2021/08/26 10:03:52;;;;;;;7.50;3.60;;;;;;;28.33;32.56;96956.38;116222;1183;69315;-72
2021/08/26 10:06:22;;;;;;;7.10;3.40;;;;;;;28.05;31.92;96954.90;116208;1179;59553;-71
2021/08/26 10:08:51;;;;;;;6.70;3.90;;;;;;;27.74;32.73;96954.73;116214;1183;59530;-70
2021/08/26 10:11:20;;;;;;;5.80;3.50;;;;;;;27.63;33.76;96960.35;116243;1183;71402;-70
2021/08/26 10:13:50;;;;;;;6.30;4.00;;;;;;;26.76;33.06;96965.35;116172;1184;68454;-70
2021/08/26 10:16:19;;;;;;;6.70;4.10;;;;;;;26.05;34.08;96963.14;116184;1179;69222;-70
2021/08/26 10:18:53;;;;;;;8.90;4.40;;;;;;;25.22;35.23;96960.39;116233;1182;59543;-70
2021/08/26 10:21:22;;;;;;;15.50;4.70;;;;;;;25.12;34.87;96956.77;116242;1183;59569;-70
2021/08/26 10:23:52;;;;;;;7.60;4.50;;;;;;;24.18;36.58;96957.35;116245;1183;71169;-70
2021/08/26 10:26:21;;;;;;;10.80;5.00;;;;;;;23.77;37.22;96956.45;116202;1180;68548;-70
2021/08/26 10:28:50;;;;;;;9.60;5.30;;;;;;;23.11;38.06;96959.63;116236;1183;68404;-71
2021/08/26 10:31:39;;;;;;;12.50;5.60;;;;;;;22.48;39.69;96961.29;116198;1182;59550;-71
2021/08/26 10:34:09;;;;;;;11.80;5.00;;;;;;;21.63;42.43;96960.18;116221;1183;59554;-74
2021/08/26 10:37:04;;;;;;;;;;;;;;;21.31;44.52;96961.38;116225;1182;71474;-71
2021/08/26 10:39:34;;;;;;;9.60;5.40;;;;;;;21.09;45.31;96960.03;115764;1185;69188;-72
2021/08/26 10:42:22;;;;;;;;;;;;;;;20.96;45.66;96960.02;115596;1184;69295;-71
2021/08/26 10:45:12;;;;;;;9.00;5.20;;;;;;;20.77;45.57;96963.67;115713;1186;59615;-71
2021/08/26 10:47:50;;;;;;;9.20;5.40;;;;;;;20.71;46.07;96965.50;115752;1185;59598;-71
2021/08/26 10:50:22;;;;;;;12.10;5.60;;;;;;;20.70;45.83;96962.23;115725;1183;71169;-71
2021/08/26 10:53:05;;;;;;;7.10;4.70;;;;;;;20.56;46.70;96958.92;115736;1187;69196;-71
2021/08/26 10:55:34;;;;;;;8.00;4.80;;;;;;;20.72;46.87;96956.39;115717;1184;68493;-72
2021/08/26 10:58:21;;;;;;;13.50;5.60;;;;;;;20.70;46.90;96958.85;115666;1185;59564;-71
2021/08/26 11:00:55;;;;;;;8.90;4.70;;;;;;;20.76;46.99;96957.02;115748;1186;59552;-71
2021/08/26 11:03:55;;;;;;;9.70;5.50;;;;;;;20.75;46.69;96962.45;115748;1184;70571;-71
2021/08/26 11:06:27;;;;;;;7.70;4.80;;;;;;;20.69;46.55;96964.59;115691;1185;69523;-71
2021/08/26 11:09:12;;;;;;;7.50;4.50;;;;;;;20.61;46.68;96961.87;115773;1187;69031;-71
2021/08/26 11:11:45;;;;;;;9.00;4.30;;;;;;;20.73;47.23;96958.37;115689;1188;59555;-71
2021/08/26 11:14:17;;;;;;;9.00;5.00;;;;;;;20.95;47.38;96957.38;115667;1184;59543;-72
2021/08/26 11:16:51;;;;;;;9.00;5.20;;;;;;;21.03;46.15;96958.85;115811;1184;71494;-71
2021/08/26 11:19:19;;;;;;;8.90;5.30;;;;;;;21.00;46.27;96956.40;116117;1184;69397;-71
2021/08/26 11:21:48;;;;;;;12.80;5.70;;;;;;;21.10;45.81;96954.77;116180;1183;69202;-71
2021/08/26 11:24:20;;;;;;;11.30;6.20;;;;;;;21.74;45.44;96954.86;116187;1183;59557;-71
2021/08/26 11:26:56;;;;;;;8.60;5.60;;;;;;;22.32;43.32;96950.66;116181;1181;59575;-72
2021/08/26 11:29:25;;;;;;;10.80;5.70;;;;;;;22.81;42.26;96953.11;116187;1184;70580;-72
2021/08/26 11:31:54;;;;;;;11.60;6.00;;;;;;;22.91;41.87;96947.54;116154;1179;68233;-71
2021/08/26 11:34:33;;;;;;;15.40;5.60;;;;;;;22.70;41.98;96957.27;116153;1184;68555;-72
2021/08/26 11:37:31;;;;;;;8.30;5.00;;;;;;;22.33;42.37;96956.45;116154;1183;59558;-72
2021/08/26 11:40:07;;;;;;;8.60;5.70;;;;;;;21.74;43.98;96955.73;116273;1183;59558;-72
2021/08/26 11:42:40;;;;;;;9.70;5.50;;;;;;;21.46;44.24;96955.23;116226;1184;70799;-72